Time;durP1;ratioP1;P1;durP2;ratioP2;P2;SDS_P1;SDS_P2;PMS_P1;PMS_P2;Temp;Humidity;BMP_temperature;BMP_pressure;BME280_temperature;BME280_humidity;BME280_pressure;Samples;Min_cycle;Max_cycle;Signal;HPM_P1;HPM_P2
2021/09/04 00:02:16;;;;;;;52.90;29.08;;;10.80;99.90;;;;;;5039971;28;20041;-74
2021/09/04 00:04:43;;;;;;;50.22;26.38;;;10.80;99.90;;;;;;5019901;28;20413;-74
2021/09/04 00:07:10;;;;;;;46.58;26.10;;;10.80;99.90;;;;;;5044610;28;20637;-74
2021/09/04 00:09:37;;;;;;;56.67;28.95;;;10.90;99.90;;;;;;5019871;28;20069;-74
2021/09/04 00:12:04;;;;;;;59.83;29.83;;;10.80;99.90;;;;;;5031742;28;20275;-74
2021/09/04 00:14:33;;;;;;;68.88;31.67;;;10.70;99.90;;;;;;5044671;28;20037;-74
2021/09/04 00:17:01;;;;;;;73.47;33.17;;;10.70;99.90;;;;;;5026654;28;20041;-74
2021/09/04 00:19:27;;;;;;;57.88;31.23;;;10.60;99.90;;;;;;5012329;28;20086;-74
2021/09/04 00:21:54;;;;;;;65.10;31.27;;;10.70;99.90;;;;;;5049439;28;20053;-75
2021/09/04 00:24:21;;;;;;;65.20;31.13;;;10.80;99.90;;;;;;5048903;28;20087;-74
2021/09/04 00:26:47;;;;;;;57.08;28.65;;;10.80;99.90;;;;;;5043001;28;20551;-74
2021/09/04 00:29:14;;;;;;;43.83;23.90;;;10.70;99.90;;;;;;5008265;28;20566;-74
2021/09/04 00:31:41;;;;;;;43.15;24.20;;;10.60;99.90;;;;;;5026056;28;20044;-74
2021/09/04 00:34:08;;;;;;;41.90;23.77;;;10.50;99.90;;;;;;5034142;28;20044;-74
2021/09/04 00:36:34;;;;;;;37.17;23.15;;;10.40;99.90;;;;;;5019690;28;20087;-74
2021/09/04 00:39:02;;;;;;;40.80;23.08;;;10.40;99.90;;;;;;5049526;28;20103;-74
2021/09/04 00:41:29;;;;;;;32.90;20.50;;;10.30;99.90;;;;;;5023905;28;20137;-74
2021/09/04 00:43:56;;;;;;;37.03;20.90;;;10.30;99.90;;;;;;5006528;28;20128;-74
2021/09/04 00:46:22;;;;;;;34.47;20.85;;;10.20;99.90;;;;;;5031551;28;20399;-74
2021/09/04 00:48:49;;;;;;;30.35;18.92;;;10.20;99.90;;;;;;5009339;28;20609;-74
2021/09/04 00:51:16;;;;;;;37.42;21.08;;;10.20;99.90;;;;;;5042011;28;20040;-73
2021/09/04 00:53:44;;;;;;;41.40;21.90;;;10.20;99.90;;;;;;5026020;28;20057;-74
2021/09/04 00:56:15;;;;;;;34.42;18.45;;;10.20;99.90;;;;;;5042044;28;20561;-73
2021/09/04 00:58:42;;;;;;;38.85;21.77;;;10.20;99.90;;;;;;5025423;28;20095;-74
2021/09/04 01:01:10;;;;;;;40.45;20.13;;;10.20;99.90;;;;;;5025009;28;20432;-73
2021/09/04 01:03:39;;;;;;;42.28;22.55;;;10.10;99.90;;;;;;5016890;28;20044;-74
2021/09/04 01:06:06;;;;;;;47.63;22.35;;;10.10;99.90;;;;;;5054161;28;20071;-73
2021/09/04 01:08:33;;;;;;;46.60;23.15;;;10.10;99.90;;;;;;5062811;28;20117;-74
2021/09/04 01:11:00;;;;;;;37.13;20.95;;;10.20;99.90;;;;;;5013880;28;20044;-73
2021/09/04 01:13:28;;;;;;;37.90;22.00;;;10.10;99.90;;;;;;5026618;28;20061;-74
2021/09/04 01:15:54;;;;;;;35.78;19.40;;;10.10;99.90;;;;;;5029852;28;20053;-74
2021/09/04 01:18:22;;;;;;;37.28;19.60;;;10.00;99.90;;;;;;5043143;28;20071;-74
2021/09/04 01:20:50;;;;;;;42.58;20.55;;;10.00;99.90;;;;;;5042531;28;20711;-74
2021/09/04 01:23:17;;;;;;;34.80;19.85;;;9.90;99.90;;;;;;5043411;28;20064;-73
2021/09/04 01:25:51;;;;;;;37.92;19.92;;;9.90;99.90;;;;;;5043136;28;20068;-74
2021/09/04 01:28:18;;;;;;;36.33;19.05;;;9.80;99.90;;;;;;5027378;28;20049;-74
2021/09/04 01:30:46;;;;;;;47.08;23.13;;;9.80;99.90;;;;;;5042670;28;20620;-74
2021/09/04 01:33:13;;;;;;;62.45;25.90;;;9.80;99.90;;;;;;5046677;28;20511;-74
2021/09/04 01:35:40;;;;;;;61.80;26.40;;;9.80;99.90;;;;;;5045710;28;20069;-73
2021/09/04 01:38:07;;;;;;;39.45;21.05;;;9.80;99.90;;;;;;5012906;28;20059;-74
2021/09/04 01:40:34;;;;;;;42.40;20.65;;;9.70;99.90;;;;;;5042903;28;20131;-74
2021/09/04 01:43:00;;;;;;;42.65;20.42;;;9.70;99.90;;;;;;5025723;28;20049;-72
2021/09/04 01:45:27;;;;;;;42.00;20.30;;;9.60;99.90;;;;;;5041594;28;20064;-74
2021/09/04 01:47:54;;;;;;;29.85;17.92;;;9.60;99.90;;;;;;5009552;28;20139;-73
2021/09/04 01:50:21;;;;;;;25.85;15.95;;;9.60;99.90;;;;;;5024992;28;20045;-72
2021/09/04 01:52:47;;;;;;;28.27;15.70;;;9.60;99.90;;;;;;5042189;28;20649;-72
2021/09/04 01:55:16;;;;;;;42.10;20.88;;;9.50;99.90;;;;;;5027145;28;20064;-74
2021/09/04 01:57:43;;;;;;;46.10;21.40;;;9.60;99.90;;;;;;5043320;28;20053;-74
2021/09/04 02:00:12;;;;;;;78.15;30.20;;;9.50;99.90;;;;;;5043486;28;20114;-75
2021/09/04 02:02:39;;;;;;;114.60;37.38;;;9.80;99.90;;;;;;5058265;28;20053;-74
2021/09/04 02:05:08;;;;;;;114.28;37.38;;;9.90;99.90;;;;;;5048757;28;20436;-71
2021/09/04 02:07:35;;;;;;;131.45;39.95;;;10.00;99.90;;;;;;5021846;28;20069;-74
2021/09/04 02:10:04;;;;;;;84.82;30.23;;;10.10;99.90;;;;;;5024477;28;20131;-72
2021/09/04 02:12:31;;;;;;;65.38;26.55;;;10.20;99.90;;;;;;5013157;28;20079;-74
2021/09/04 02:14:57;;;;;;;75.30;27.20;;;10.10;99.90;;;;;;5043296;28;20041;-75
2021/09/04 02:17:24;;;;;;;100.13;33.22;;;10.10;99.90;;;;;;5040418;28;20055;-72
2021/09/04 02:19:51;;;;;;;86.00;30.73;;;10.50;99.90;;;;;;5025288;28;20080;-73
2021/09/04 02:22:19;;;;;;;84.38;30.85;;;10.40;99.90;;;;;;5008572;28;20111;-73
2021/09/04 02:24:47;;;;;;;102.03;33.67;;;10.40;99.90;;;;;;5045117;28;20468;-73
2021/09/04 02:27:14;;;;;;;125.70;35.78;;;10.20;99.90;;;;;;5022955;28;20057;-73
2021/09/04 02:29:41;;;;;;;90.43;29.58;;;10.20;99.90;;;;;;5007309;28;20054;-72
2021/09/04 02:32:09;;;;;;;79.25;31.55;;;10.20;99.90;;;;;;5007662;28;20104;-72
2021/09/04 02:34:36;;;;;;;132.38;40.72;;;10.20;99.90;;;;;;5036006;28;20053;-72
2021/09/04 02:37:03;;;;;;;122.47;36.97;;;10.40;99.90;;;;;;5045305;28;20110;-72
2021/09/04 02:39:30;;;;;;;129.05;41.20;;;10.50;99.90;;;;;;5048880;28;20385;-73
2021/09/04 02:41:57;;;;;;;126.93;39.95;;;10.60;99.90;;;;;;5043480;28;20041;-73
2021/09/04 02:44:25;;;;;;;149.60;42.17;;;10.90;99.90;;;;;;5015653;28;20194;-72
2021/09/04 02:46:53;;;;;;;127.97;38.58;;;11.10;99.90;;;;;;5038622;28;20045;-72
2021/09/04 02:49:22;;;;;;;138.35;38.30;;;11.30;99.90;;;;;;5046243;28;20059;-73
2021/09/04 02:51:50;;;;;;;178.27;48.60;;;11.40;99.90;;;;;;5044895;28;20446;-72
2021/09/04 02:54:16;;;;;;;185.77;47.00;;;11.40;99.90;;;;;;5028510;28;20444;-75
2021/09/04 02:56:44;;;;;;;122.50;38.13;;;11.40;99.90;;;;;;5045580;28;20056;-72
2021/09/04 02:59:11;;;;;;;200.93;48.72;;;11.40;99.90;;;;;;5037880;28;20053;-72
2021/09/04 03:01:38;;;;;;;190.90;46.30;;;11.60;99.90;;;;;;5007917;28;20260;-74
2021/09/04 03:04:06;;;;;;;180.88;48.67;;;11.80;99.90;;;;;;5047931;28;20045;-74
2021/09/04 03:06:33;;;;;;;172.00;45.20;;;11.90;99.90;;;;;;5041292;28;20558;-74
2021/09/04 03:09:00;;;;;;;178.48;47.42;;;11.90;99.90;;;;;;5064206;28;20048;-74
2021/09/04 03:11:27;;;;;;;210.48;47.58;;;12.00;99.90;;;;;;5062654;28;20064;-74
2021/09/04 03:13:55;;;;;;;200.40;48.42;;;12.00;99.90;;;;;;5027035;28;20421;-75
2021/09/04 03:16:22;;;;;;;147.68;42.78;;;12.00;99.90;;;;;;5026832;28;20497;-74
2021/09/04 03:18:49;;;;;;;158.40;41.05;;;12.10;99.90;;;;;;5045858;28;20053;-73
2021/09/04 03:21:17;;;;;;;167.90;43.78;;;12.10;99.90;;;;;;5026148;28;20049;-73
2021/09/04 03:23:44;;;;;;;190.15;45.88;;;12.10;99.90;;;;;;5028427;28;20483;-72
2021/09/04 03:26:11;;;;;;;201.75;45.53;;;12.10;99.90;;;;;;5045043;28;20087;-72
2021/09/04 03:28:38;;;;;;;148.38;40.05;;;12.10;99.90;;;;;;5026848;28;20049;-73
2021/09/04 03:31:07;;;;;;;228.23;47.65;;;12.10;99.90;;;;;;5027736;28;20048;-74
2021/09/04 03:33:34;;;;;;;210.82;46.22;;;12.10;99.90;;;;;;5051346;28;20463;-73
2021/09/04 03:36:01;;;;;;;220.93;47.92;;;12.20;99.90;;;;;;5055158;28;20052;-74
2021/09/04 03:38:29;;;;;;;215.85;46.10;;;12.10;99.90;;;;;;5065185;28;20669;-72
2021/09/04 03:40:57;;;;;;;222.82;44.72;;;12.00;99.90;;;;;;5046585;28;20048;-72
2021/09/04 03:43:25;;;;;;;232.98;47.70;;;11.90;99.90;;;;;;5064562;28;20135;-73
2021/09/04 03:45:52;;;;;;;223.05;43.45;;;11.80;99.90;;;;;;5043945;28;20519;-74
2021/09/04 03:48:20;;;;;;;192.93;41.30;;;11.70;99.90;;;;;;5044469;28;20473;-73
2021/09/04 03:50:47;;;;;;;282.77;45.70;;;11.80;99.90;;;;;;5044028;28;20274;-73
2021/09/04 03:53:15;;;;;;;161.00;34.85;;;11.80;99.90;;;;;;5024553;28;20497;-72
2021/09/04 03:55:41;;;;;;;225.20;40.90;;;11.80;99.90;;;;;;5016637;28;20446;-73
2021/09/04 03:58:08;;;;;;;221.25;40.53;;;11.80;99.90;;;;;;5045282;28;20049;-73
2021/09/04 04:00:35;;;;;;;193.05;36.75;;;11.80;99.90;;;;;;5010171;28;20041;-73
2021/09/04 04:03:03;;;;;;;144.02;35.83;;;11.90;99.90;;;;;;5029078;28;20041;-73
2021/09/04 04:05:30;;;;;;;176.88;32.83;;;11.90;99.90;;;;;;5032784;28;20102;-72
2021/09/04 04:07:57;;;;;;;125.88;28.27;;;11.80;99.90;;;;;;5043364;28;20057;-75
2021/09/04 04:10:24;;;;;;;166.35;33.42;;;11.80;99.90;;;;;;5043752;28;20080;-75
2021/09/04 04:12:51;;;;;;;184.50;32.72;;;11.70;99.90;;;;;;5026801;28;20095;-75
2021/09/04 04:15:18;;;;;;;204.15;35.13;;;11.60;99.90;;;;;;5044227;28;20061;-72
2021/09/04 04:17:45;;;;;;;208.48;34.72;;;11.70;99.90;;;;;;5027895;28;20040;-72
2021/09/04 04:20:12;;;;;;;179.63;36.10;;;11.70;99.90;;;;;;5025302;28;20517;-73
2021/09/04 04:22:39;;;;;;;227.07;37.90;;;11.70;99.90;;;;;;5026047;28;20499;-72
2021/09/04 04:25:07;;;;;;;249.00;37.33;;;11.80;99.90;;;;;;5044365;28;20053;-73
2021/09/04 04:27:35;;;;;;;196.50;33.65;;;11.80;99.90;;;;;;5044537;28;20045;-73
2021/09/04 04:30:03;;;;;;;213.93;34.95;;;11.80;99.90;;;;;;5045469;28;20056;-73
2021/09/04 04:32:30;;;;;;;230.75;34.28;;;11.70;99.90;;;;;;5009269;28;20055;-73
2021/09/04 04:34:59;;;;;;;228.35;33.42;;;11.80;99.90;;;;;;5036172;28;20064;-73
2021/09/04 04:37:27;;;;;;;156.82;32.65;;;11.90;99.90;;;;;;5044183;28;20083;-72
2021/09/04 04:39:54;;;;;;;152.25;31.17;;;11.90;99.90;;;;;;5050293;28;20057;-72
2021/09/04 04:42:23;;;;;;;229.30;35.38;;;12.00;99.90;;;;;;5042508;28;20424;-73
2021/09/04 04:44:50;;;;;;;194.50;33.03;;;12.00;99.90;;;;;;5049518;28;20139;-73
2021/09/04 04:47:17;;;;;;;173.52;30.15;;;12.00;99.90;;;;;;5012960;28;20657;-72
2021/09/04 04:49:44;;;;;;;184.43;29.58;;;11.80;99.90;;;;;;5043219;28;20132;-73
2021/09/04 04:52:11;;;;;;;176.63;30.48;;;11.80;99.90;;;;;;5007272;28;20044;-73
2021/09/04 04:54:38;;;;;;;163.73;30.88;;;11.70;99.90;;;;;;5043673;28;20053;-73
2021/09/04 04:57:06;;;;;;;205.27;32.42;;;11.70;99.90;;;;;;5024029;28;20102;-72
2021/09/04 04:59:33;;;;;;;195.98;31.13;;;11.80;99.90;;;;;;5024305;28;20382;-76
2021/09/04 05:02:00;;;;;;;209.68;31.17;;;11.90;99.90;;;;;;5024898;28;20501;-72
2021/09/04 05:04:27;;;;;;;156.43;29.33;;;11.80;99.90;;;;;;5033617;28;20472;-73
2021/09/04 05:06:54;;;;;;;183.18;31.00;;;11.80;99.90;;;;;;5041629;28;20380;-74
2021/09/04 05:09:22;;;;;;;262.58;35.60;;;11.80;99.90;;;;;;5044641;28;20044;-74
2021/09/04 05:11:49;;;;;;;214.25;35.17;;;11.90;99.90;;;;;;5037478;28;20048;-72
2021/09/04 05:14:15;;;;;;;184.45;31.23;;;11.80;99.90;;;;;;5005631;28;20048;-72
2021/09/04 05:16:44;;;;;;;174.82;30.85;;;11.80;99.90;;;;;;5005945;28;20044;-73
2021/09/04 05:19:11;;;;;;;149.93;28.52;;;11.80;99.90;;;;;;5024603;28;20053;-72
2021/09/04 05:21:38;;;;;;;151.82;28.92;;;11.70;99.90;;;;;;5024059;28;20080;-72
2021/09/04 05:24:05;;;;;;;165.02;30.73;;;11.80;99.90;;;;;;5025146;28;20053;-75
2021/09/04 05:26:32;;;;;;;117.28;26.85;;;11.80;99.90;;;;;;5023619;28;20732;-74
2021/09/04 05:29:01;;;;;;;174.35;31.20;;;11.90;99.90;;;;;;5041726;28;20041;-74
2021/09/04 05:31:27;;;;;;;157.68;29.30;;;11.80;99.90;;;;;;5041903;28;20544;-72
2021/09/04 05:33:54;;;;;;;158.82;28.88;;;11.90;99.90;;;;;;5032035;28;20105;-75
2021/09/04 05:36:21;;;;;;;148.90;25.02;;;11.90;99.90;;;;;;5037180;28;20052;-72
2021/09/04 05:38:52;;;;;;;135.73;25.40;;;11.90;99.90;;;;;;5062709;28;20053;-73
2021/09/04 05:41:19;;;;;;;169.32;29.70;;;11.90;99.90;;;;;;5061948;28;20122;-74
2021/09/04 05:43:45;;;;;;;209.68;30.80;;;11.90;99.90;;;;;;5034180;28;20424;-74
2021/09/04 05:46:12;;;;;;;178.57;27.45;;;11.90;99.90;;;;;;5023287;28;20072;-74
2021/09/04 05:48:39;;;;;;;159.95;28.85;;;11.90;99.90;;;;;;5041920;28;20429;-74
2021/09/04 05:51:05;;;;;;;161.80;27.60;;;11.90;99.90;;;;;;5029666;28;20124;-74
2021/09/04 05:53:32;;;;;;;226.88;31.42;;;12.00;99.90;;;;;;5062881;28;20204;-74
2021/09/04 05:55:59;;;;;;;145.75;28.20;;;11.90;99.90;;;;;;5016521;28;20111;-74
2021/09/04 05:58:26;;;;;;;184.20;29.85;;;11.90;99.90;;;;;;5042368;28;20327;-74
2021/09/04 06:00:53;;;;;;;142.30;25.60;;;12.00;99.90;;;;;;5041985;28;20326;-74
2021/09/04 06:03:20;;;;;;;119.82;22.10;;;12.00;99.90;;;;;;5029571;28;20083;-73
2021/09/04 06:05:47;;;;;;;135.98;24.48;;;11.90;99.90;;;;;;5039746;28;20040;-74
2021/09/04 06:08:13;;;;;;;141.55;25.70;;;11.90;99.90;;;;;;5045693;28;20484;-73
2021/09/04 06:10:40;;;;;;;117.50;23.17;;;11.80;99.90;;;;;;5020728;28;20493;-74
2021/09/04 06:13:07;;;;;;;125.57;23.13;;;11.80;99.90;;;;;;5041994;28;20049;-74
2021/09/04 06:15:34;;;;;;;86.90;22.08;;;11.80;99.90;;;;;;5027324;28;20076;-74
2021/09/04 06:18:01;;;;;;;64.10;20.10;;;11.90;99.90;;;;;;5026111;28;20500;-74
2021/09/04 06:20:27;;;;;;;93.68;21.95;;;12.00;99.90;;;;;;5045502;28;20049;-74
2021/09/04 06:22:54;;;;;;;92.45;19.55;;;12.10;99.90;;;;;;5045586;28;20053;-74
2021/09/04 06:25:21;;;;;;;87.53;21.83;;;12.00;99.90;;;;;;5011146;28;20469;-74
2021/09/04 06:27:49;;;;;;;114.30;22.35;;;11.90;99.90;;;;;;5010954;28;20372;-74
2021/09/04 06:30:15;;;;;;;76.32;22.10;;;11.90;99.90;;;;;;5044395;28;20080;-74
2021/09/04 06:32:42;;;;;;;79.13;20.33;;;12.00;99.90;;;;;;5046081;28;20060;-73
2021/09/04 06:35:09;;;;;;;61.45;19.25;;;12.10;99.90;;;;;;5037688;28;20078;-73
2021/09/04 06:37:36;;;;;;;86.88;23.45;;;11.90;99.90;;;;;;5047160;28;20090;-74
2021/09/04 06:40:05;;;;;;;69.70;19.42;;;11.90;99.90;;;;;;5047564;28;20260;-73
2021/09/04 06:42:32;;;;;;;86.72;18.85;;;12.10;99.90;;;;;;5031947;28;20052;-74
2021/09/04 06:44:59;;;;;;;76.25;17.83;;;12.00;99.90;;;;;;5047559;28;20606;-74
2021/09/04 06:47:26;;;;;;;103.18;20.98;;;12.00;99.90;;;;;;5031662;28;20091;-74
2021/09/04 06:49:53;;;;;;;78.60;19.85;;;12.00;99.90;;;;;;5047206;28;20489;-74
2021/09/04 06:52:20;;;;;;;64.28;18.77;;;12.10;99.90;;;;;;5029171;28;20594;-74
2021/09/04 06:54:46;;;;;;;90.22;18.83;;;12.10;99.90;;;;;;5049490;28;20315;-74
2021/09/04 06:57:13;;;;;;;66.90;19.42;;;12.20;99.90;;;;;;5045781;28;20081;-74
2021/09/04 06:59:40;;;;;;;61.70;20.23;;;12.10;99.90;;;;;;5044414;28;20084;-74
2021/09/04 07:02:06;;;;;;;83.85;18.60;;;12.20;99.90;;;;;;5027741;28;20103;-73
2021/09/04 07:04:33;;;;;;;63.00;18.33;;;12.40;99.90;;;;;;5035535;28;20045;-73
2021/09/04 07:07:04;;;;;;;47.90;17.77;;;12.20;99.90;;;;;;5063913;28;20416;-74
2021/09/04 07:09:34;;;;;;;52.65;18.45;;;12.40;99.90;;;;;;5065012;28;20052;-74
2021/09/04 07:12:00;;;;;;;56.88;18.05;;;12.40;99.90;;;;;;5022769;28;20633;-74
2021/09/04 07:14:27;;;;;;;63.20;19.15;;;12.30;99.90;;;;;;5027398;28;20087;-74
2021/09/04 07:16:54;;;;;;;58.22;17.08;;;12.30;99.90;;;;;;5012238;28;20060;-74
2021/09/04 07:19:21;;;;;;;49.72;16.27;;;12.30;99.90;;;;;;5027125;28;20087;-74
2021/09/04 07:21:48;;;;;;;77.13;18.75;;;12.30;99.90;;;;;;4999325;28;20409;-73
2021/09/04 07:24:14;;;;;;;52.63;17.20;;;12.30;99.90;;;;;;5007559;28;20494;-74
2021/09/04 07:26:41;;;;;;;74.07;18.88;;;12.40;99.90;;;;;;5025012;28;20177;-74
2021/09/04 07:29:08;;;;;;;55.05;15.95;;;12.40;99.90;;;;;;5010861;28;20060;-74
2021/09/04 07:31:39;;;;;;;49.50;17.00;;;12.50;99.90;;;;;;4991579;28;20040;-73
2021/09/04 07:34:06;;;;;;;49.35;17.02;;;12.40;99.90;;;;;;5029887;28;20123;-74
2021/09/04 07:36:33;;;;;;;47.45;16.45;;;12.50;99.90;;;;;;5026609;28;20049;-74
2021/09/04 07:38:59;;;;;;;51.05;16.48;;;12.60;99.90;;;;;;5047856;28;20483;-74
2021/09/04 07:41:26;;;;;;;47.10;17.75;;;12.50;99.90;;;;;;4992014;28;20406;-74
2021/09/04 07:43:53;;;;;;;38.75;16.00;;;12.50;99.90;;;;;;5006158;28;20049;-74
2021/09/04 07:46:20;;;;;;;40.03;16.33;;;12.60;99.90;;;;;;5016718;28;20051;-73
2021/09/04 07:48:46;;;;;;;50.15;17.00;;;12.60;99.90;;;;;;5010228;28;20044;-74
2021/09/04 07:51:13;;;;;;;39.80;16.77;;;12.50;99.90;;;;;;5025753;28;20049;-74
2021/09/04 07:53:40;;;;;;;43.72;15.65;;;12.60;99.90;;;;;;5028516;28;20041;-74
2021/09/04 07:56:07;;;;;;;39.75;15.38;;;12.80;99.90;;;;;;5031812;28;20040;-74
2021/09/04 07:58:35;;;;;;;42.13;16.20;;;12.80;99.90;;;;;;5046865;28;20064;-74
2021/09/04 08:01:02;;;;;;;39.42;16.40;;;12.80;99.90;;;;;;5046801;23;20112;-71
2021/09/04 08:03:29;;;;;;;34.45;16.13;;;12.80;99.90;;;;;;5062286;28;20045;-71
2021/09/04 08:05:56;;;;;;;37.22;15.68;;;13.00;99.90;;;;;;5044559;28;20179;-71
2021/09/04 08:08:23;;;;;;;37.30;14.07;;;13.10;99.90;;;;;;5043366;28;20442;-72
2021/09/04 08:10:50;;;;;;;34.00;13.95;;;13.00;99.90;;;;;;5056925;28;20076;-71
2021/09/04 08:13:17;;;;;;;33.75;15.07;;;12.90;99.90;;;;;;5058094;28;20083;-72
2021/09/04 08:15:44;;;;;;;36.30;15.65;;;12.60;99.90;;;;;;5059798;28;20052;-72
2021/09/04 08:18:11;;;;;;;38.67;15.57;;;12.50;99.90;;;;;;5015286;28;20064;-73
2021/09/04 08:20:38;;;;;;;28.58;14.27;;;12.60;99.90;;;;;;5041555;28;20053;-72
2021/09/04 08:23:07;;;;;;;29.00;13.90;;;12.80;99.90;;;;;;5025475;28;20106;-72
2021/09/04 08:25:37;;;;;;;29.33;14.85;;;12.90;99.90;;;;;;5056524;28;20047;-72
2021/09/04 08:28:08;;;;;;;33.15;15.27;;;12.80;99.90;;;;;;5043890;28;20466;-72
2021/09/04 08:30:37;;;;;;;34.53;14.98;;;13.00;99.90;;;;;;5061972;28;20144;-72
2021/09/04 08:33:04;;;;;;;31.95;15.60;;;13.20;99.90;;;;;;5030664;28;20140;-72
2021/09/04 08:35:31;;;;;;;30.23;14.10;;;12.90;99.90;;;;;;5050603;28;20444;-72
2021/09/04 08:37:59;;;;;;;31.33;15.75;;;12.90;99.90;;;;;;5041594;28;20106;-73
2021/09/04 08:40:25;;;;;;;27.90;15.02;;;12.90;99.90;;;;;;5024139;28;20068;-73
2021/09/04 08:42:52;;;;;;;29.85;14.50;;;12.90;99.90;;;;;;5054234;28;20594;-73
2021/09/04 08:45:19;;;;;;;27.67;14.35;;;13.00;99.90;;;;;;5060098;28;20056;-73
2021/09/04 08:47:49;;;;;;;28.73;14.75;;;13.10;99.90;;;;;;5034737;28;20063;-73
2021/09/04 08:50:17;;;;;;;30.33;14.45;;;13.10;99.90;;;;;;5041404;28;20194;-73
2021/09/04 08:52:44;;;;;;;27.33;14.25;;;13.30;99.90;;;;;;5047950;28;20113;-73
2021/09/04 08:55:10;;;;;;;24.55;12.88;;;13.30;99.90;;;;;;5016400;28;20174;-74
2021/09/04 08:57:38;;;;;;;25.33;12.82;;;13.50;99.90;;;;;;5015772;28;20067;-74
2021/09/04 09:00:06;;;;;;;26.40;15.02;;;13.40;99.90;;;;;;5024648;28;20114;-72
2021/09/04 09:02:33;;;;;;;31.80;15.93;;;13.30;99.90;;;;;;5061294;28;20052;-72
2021/09/04 09:05:04;;;;;;;34.85;16.40;;;13.20;99.90;;;;;;5055329;28;20064;-73
2021/09/04 09:07:45;;;;;;;26.95;13.90;;;13.30;99.90;;;;;;5055547;28;20049;-72
2021/09/04 09:10:21;;;;;;;26.30;14.57;;;13.40;99.90;;;;;;5057454;28;20526;-73
2021/09/04 09:12:49;;;;;;;29.73;14.07;;;13.20;99.90;;;;;;5048511;28;20060;-73
2021/09/04 09:15:27;;;;;;;29.75;16.05;;;13.50;99.90;;;;;;5040710;28;20132;-73
2021/09/04 09:18:07;;;;;;;25.60;14.90;;;13.70;99.90;;;;;;5052774;28;20128;-73
2021/09/04 09:20:35;;;;;;;25.88;15.20;;;13.90;99.90;;;;;;5042400;28;20049;-73
2021/09/04 09:23:12;;;;;;;28.88;14.80;;;13.90;99.90;;;;;;5042094;28;20140;-73
2021/09/04 09:25:40;;;;;;;28.05;16.48;;;13.90;99.90;;;;;;5024487;28;20102;-73
2021/09/04 09:28:13;;;;;;;33.17;16.88;;;14.10;99.90;;;;;;5025371;28;20052;-73
2021/09/04 09:30:44;;;;;;;34.65;16.25;;;13.90;99.90;;;;;;5043069;28;20047;-73
2021/09/04 09:33:15;;;;;;;34.15;16.88;;;13.90;99.90;;;;;;5030044;28;20052;-73
2021/09/04 09:35:49;;;;;;;32.83;18.83;;;13.90;99.90;;;;;;5056469;28;20444;-72
2021/09/04 09:38:20;;;;;;;35.13;18.42;;;13.90;99.90;;;;;;5048849;28;20049;-73
2021/09/04 09:40:47;;;;;;;35.55;18.45;;;13.90;99.90;;;;;;5050390;28;20060;-73
2021/09/04 09:43:18;;;;;;;43.35;20.95;;;13.80;99.90;;;;;;5038019;28;20106;-73
2021/09/04 09:45:55;;;;;;;35.10;19.00;;;13.60;99.90;;;;;;5048228;28;20504;-72
2021/09/04 09:48:31;;;;;;;34.58;19.52;;;13.80;99.90;;;;;;5052405;28;20099;-73
2021/09/04 09:50:59;;;;;;;37.05;17.95;;;13.70;99.90;;;;;;5044664;28;20420;-73
2021/09/04 09:53:27;;;;;;;38.35;19.85;;;13.60;99.90;;;;;;5028676;28;20053;-73
2021/09/04 09:55:56;;;;;;;35.47;19.55;;;13.60;99.90;;;;;;5054754;28;20055;-73
2021/09/04 09:58:25;;;;;;;37.58;19.88;;;13.60;99.90;;;;;;5055279;28;20136;-74
2021/09/04 10:00:56;;;;;;;35.60;19.38;;;13.50;99.90;;;;;;5046629;28;20052;-73
2021/09/04 10:03:25;;;;;;;32.72;18.25;;;13.70;99.90;;;;;;5033919;28;20057;-72
2021/09/04 10:05:54;;;;;;;33.55;19.40;;;13.70;99.90;;;;;;5055916;28;20049;-71
2021/09/04 10:08:24;;;;;;;36.85;20.27;;;13.80;99.90;;;;;;5048644;28;20049;-73
2021/09/04 10:10:51;;;;;;;38.83;19.98;;;13.70;99.90;;;;;;5061894;28;20041;-73
2021/09/04 10:13:18;;;;;;;35.70;19.05;;;13.90;99.90;;;;;;5061905;28;20356;-72
2021/09/04 10:15:50;;;;;;;37.75;19.65;;;14.10;99.90;;;;;;5057226;28;20052;-73
2021/09/04 10:18:23;;;;;;;35.80;18.95;;;14.40;99.90;;;;;;5052266;28;20053;-73
2021/09/04 10:21:05;;;;;;;35.65;20.10;;;14.50;99.90;;;;;;5084243;28;20044;-73
2021/09/04 10:23:32;;;;;;;36.75;20.58;;;14.40;99.90;;;;;;5066600;28;20611;-74
2021/09/04 10:26:21;;;;;;;39.25;19.92;;;14.30;99.90;;;;;;5051566;28;20045;-72
2021/09/04 10:28:55;;;;;;;34.17;20.05;;;14.50;99.90;;;;;;5053391;28;20134;-72
2021/09/04 10:31:41;;;;;;;34.55;20.73;;;14.40;99.90;;;;;;5051369;28;20060;-73
2021/09/04 10:34:24;;;;;;;39.42;22.27;;;14.40;99.90;;;;;;5052697;28;20053;-73
2021/09/04 10:36:58;;;;;;;41.90;22.02;;;14.10;99.90;;;;;;5059805;28;20310;-72
2021/09/04 10:39:57;;;;;;;38.13;21.70;;;14.00;99.90;;;;;;5059585;28;20052;-74
2021/09/04 10:42:34;;;;;;;39.50;21.40;;;14.20;99.90;;;;;;5047996;28;20180;-72
2021/09/04 10:45:17;;;;;;;37.50;20.40;;;14.10;99.90;;;;;;5023287;28;20111;-73
2021/09/04 10:47:55;;;;;;;43.83;21.27;;;14.10;99.90;;;;;;5034144;28;20637;-72
2021/09/04 10:50:24;;;;;;;39.40;22.23;;;13.90;99.90;;;;;;5051894;28;20048;-72
2021/09/04 10:53:05;;;;;;;42.75;22.73;;;13.80;99.90;;;;;;5026296;28;20075;-72
2021/09/04 10:55:40;;;;;;;41.38;22.77;;;13.90;99.90;;;;;;5049572;28;20072;-72
2021/09/04 10:58:15;;;;;;;37.58;22.75;;;14.20;99.90;;;;;;5051053;28;20666;-72
2021/09/04 11:00:43;;;;;;;38.53;21.48;;;14.50;99.90;;;;;;5057579;28;20098;-72
2021/09/04 11:03:18;;;;;;;33.25;21.08;;;14.80;99.90;;;;;;5030657;28;20041;-72
2021/09/04 11:05:51;;;;;;;38.90;23.02;;;15.10;99.90;;;;;;5032852;28;20396;-73
2021/09/04 11:08:20;;;;;;;35.28;22.58;;;15.10;99.90;;;;;;5042152;28;20056;-72
2021/09/04 11:11:05;;;;;;;36.83;22.33;;;15.10;99.90;;;;;;5042880;28;20441;-73
2021/09/04 11:13:32;;;;;;;41.25;24.30;;;14.90;99.90;;;;;;5042821;28;20124;-72
2021/09/04 11:16:37;;;;;;;36.63;22.60;;;14.40;99.90;;;;;;5051852;28;20053;-72
2021/09/04 11:19:24;;;;;;;31.23;21.70;;;14.80;99.90;;;;;;5035811;28;20041;-72
2021/09/04 11:22:06;;;;;;;34.60;21.65;;;15.10;99.90;;;;;;5049728;28;20055;-72
2021/09/04 11:24:44;;;;;;;39.60;23.65;;;15.30;99.90;;;;;;5042271;28;20061;-72
2021/09/04 11:27:19;;;;;;;38.97;23.05;;;15.40;99.90;;;;;;5041566;28;20315;-73
2021/09/04 11:29:53;;;;;;;38.15;23.23;;;15.40;99.90;;;;;;5043226;28;20466;-72
2021/09/04 11:32:24;;;;;;;35.42;22.77;;;15.30;99.90;;;;;;5025515;28;20166;-72
2021/09/04 11:34:52;;;;;;;36.72;21.42;;;15.60;99.90;;;;;;5052201;28;20068;-72
2021/09/04 11:37:28;;;;;;;39.55;24.40;;;15.90;99.90;;;;;;5043573;28;20075;-72
2021/09/04 11:40:00;;;;;;;35.35;22.63;;;16.00;99.90;;;;;;5042239;28;20386;-72
2021/09/04 11:42:30;;;;;;;35.00;23.75;;;15.40;99.90;;;;;;5052889;28;20067;-72
2021/09/04 11:45:10;;;;;;;31.77;22.42;;;15.50;99.90;;;;;;5059398;28;20291;-72
2021/09/04 11:47:39;;;;;;;34.22;23.48;;;15.60;99.90;;;;;;5032725;28;20064;-73
2021/09/04 11:50:09;;;;;;;31.38;20.85;;;16.00;99.90;;;;;;5048929;28;20115;-72
2021/09/04 11:52:40;;;;;;;34.53;22.95;;;16.60;99.90;;;;;;5029594;28;20045;-73
2021/09/04 11:55:17;;;;;;;33.50;22.75;;;16.70;99.90;;;;;;5028814;28;20045;-72
2021/09/04 11:57:49;;;;;;;34.70;22.83;;;16.60;99.90;;;;;;5044327;28;20484;-71
2021/09/04 12:00:20;;;;;;;33.00;22.17;;;16.10;99.90;;;;;;5041047;28;20477;-72
2021/09/04 12:02:52;;;;;;;31.55;22.70;;;16.00;99.90;;;;;;5028432;28;20061;-72
2021/09/04 12:05:22;;;;;;;31.60;22.33;;;16.10;99.90;;;;;;5051892;28;20485;-72
2021/09/04 12:07:51;;;;;;;31.00;22.35;;;16.30;99.90;;;;;;5044449;28;20288;-72
2021/09/04 12:10:23;;;;;;;32.65;21.15;;;16.10;99.90;;;;;;5024216;28;20045;-72
2021/09/04 12:13:02;;;;;;;26.45;20.45;;;16.60;99.90;;;;;;5054150;28;20051;-72
2021/09/04 12:15:31;;;;;;;34.88;22.70;;;16.90;99.90;;;;;;5060871;28;20049;-72
2021/09/04 12:18:01;;;;;;;31.58;22.70;;;16.80;99.90;;;;;;5031344;28;20052;-72
2021/09/04 12:20:37;;;;;;;27.95;22.48;;;17.20;99.90;;;;;;5048650;28;20068;-72
2021/09/04 12:23:21;;;;;;;30.10;23.00;;;17.70;99.90;;;;;;5042271;28;20139;-73
2021/09/04 12:26:03;;;;;;;32.63;23.33;;;17.90;99.90;;;;;;5042552;28;20068;-73
2021/09/04 12:28:30;;;;;;;28.80;22.85;;;17.80;99.90;;;;;;5051502;28;20048;-73
2021/09/04 12:31:05;;;;;;;26.40;22.33;;;18.20;99.90;;;;;;5059526;28;20432;-74
2021/09/04 12:33:52;;;;;;;25.58;21.58;;;18.30;99.90;;;;;;5042660;28;20491;-73